Time;durP1;ratioP1;P1;durP2;ratioP2;P2;SDS_P1;SDS_P2;PMS_P1;PMS_P2;Temp;Humidity;BMP_temperature;BMP_pressure;BME280_temperature;BME280_humidity;BME280_pressure;Samples;Min_cycle;Max_cycle;Signal;HPM_P1;HPM_P2
2022/06/10 00:00:57;;;;;;;;;;;;;;;14.03;58.07324;102023.4;;;;-81
2022/06/10 00:05:53;;;;;;;;;;;;;;;14;58.74316;102022.3;;;;-81
2022/06/10 00:11:03;;;;;;;;;;;;;;;14.27;58.03906;102017.4;;;;-84
2022/06/10 00:14:32;;;;;;;5.8;1.4;;;;;;;;;;;;;-79
2022/06/10 00:15:43;;;;;;;;;;;;;;;13.94;58.45703;102023.3;;;;-79
2022/06/10 00:25:33;;;;;;;;;;;;;;;13.89;58.65137;102014.2;;;;-80
2022/06/10 00:30:28;;;;;;;;;;;;;;;13.85;58.98242;102012;;;;-79
2022/06/10 00:35:27;;;;;;;;;;;;;;;13.82;59.27051;102013.1;;;;-81
2022/06/10 00:40:44;;;;;;;;;;;;;;;13.81;59.80762;102016.9;;;;-82
2022/06/10 00:44:48;;;;;;;4.4;1.2;;;;;;;;;;;;;-81
2022/06/10 00:45:36;;;;;;;;;;;;;;;13.77;59.84766;102012.7;;;;-81
2022/06/10 00:50:37;;;;;;;;;;;;;;;13.77;59.67871;102010;;;;-82
2022/06/10 00:55:36;;;;;;;;;;;;;;;13.75;60.04492;102004.4;;;;-80
2022/06/10 01:00:31;;;;;;;;;;;;;;;13.74;60.12207;102005.9;;;;-81
2022/06/10 01:05:29;;;;;;;;;;;;;;;13.72;59.6377;102006.9;;;;-82
2022/06/10 01:10:29;;;;;;;;;;;;;;;13.69;60.10547;102005;;;;-80
2022/06/10 01:14:42;;;;;;;4.8;1.3;;;;;;;;;;;;;-81
2022/06/10 01:15:31;;;;;;;;;;;;;;;13.67;59.35156;102005.8;;;;-80
2022/06/10 01:20:32;;;;;;;;;;;;;;;13.66;60.24609;102009.3;;;;-79
2022/06/10 01:25:48;;;;;;;;;;;;;;;13.64;59.80664;102005.4;;;;-82
2022/06/10 01:30:32;;;;;;;;;;;;;;;13.67;59.9668;102003.3;;;;-81
2022/06/10 01:35:30;;;;;;;;;;;;;;;13.68;59.66504;102007;;;;-80
2022/06/10 01:40:31;;;;;;;;;;;;;;;13.69;59.4209;102008.8;;;;-81
2022/06/10 01:44:41;;;;;;;7;1.4;;;;;;;;;;;;;-81
2022/06/10 01:45:31;;;;;;;;;;;;;;;13.73;60.03125;102012.9;;;;-81
2022/06/10 01:50:27;;;;;;;;;;;;;;;13.8;60.51172;102005.5;;;;-80
2022/06/10 01:55:28;;;;;;;;;;;;;;;13.86;60.26172;102003.5;;;;-81
2022/06/10 02:00:27;;;;;;;;;;;;;;;13.91;61.85254;102002.7;;;;-81
2022/06/10 02:05:27;;;;;;;;;;;;;;;13.97;61.36621;102000.7;;;;-81
2022/06/10 02:10:28;;;;;;;;;;;;;;;14.03;60.33105;102001.5;;;;-81
2022/06/10 02:14:39;;;;;;;5.4;1.4;;;;;;;;;;;;;-81
2022/06/10 02:15:28;;;;;;;;;;;;;;;14.08;61.03418;101998.4;;;;-80
2022/06/10 02:20:27;;;;;;;;;;;;;;;14.12;60.92676;101997.7;;;;-81
2022/06/10 02:25:27;;;;;;;;;;;;;;;14.17;60.75391;101998.4;;;;-79
2022/06/10 02:30:31;;;;;;;;;;;;;;;14.19;60.18457;101996.4;;;;-81
2022/06/10 02:35:29;;;;;;;;;;;;;;;14.23;61.15625;101995.5;;;;-80
2022/06/10 02:40:32;;;;;;;;;;;;;;;14.26;61.26074;101997.2;;;;-80
2022/06/10 02:44:43;;;;;;;8.7;1.7;;;;;;;;;;;;;-82
2022/06/10 02:45:32;;;;;;;;;;;;;;;14.32;60.96582;102001.4;;;;-79
2022/06/10 02:50:26;;;;;;;;;;;;;;;14.37;62.01563;102009.7;;;;-80
2022/06/10 02:55:26;;;;;;;;;;;;;;;14.42;61.81055;102013.2;;;;-81
2022/06/10 03:05:33;;;;;;;;;;;;;;;14.51;62.48535;102014.8;;;;-80
2022/06/10 03:10:32;;;;;;;;;;;;;;;14.57;63.7168;102019.9;;;;-80
2022/06/10 03:14:43;;;;;;;8.8;1.6;;;;;;;;;;;;;-81
2022/06/10 03:15:36;;;;;;;;;;;;;;;14.62;63.91504;102019.8;;;;-80
2022/06/10 03:20:31;;;;;;;;;;;;;;;14.67;64.30371;102022.4;;;;-80
2022/06/10 03:25:30;;;;;;;;;;;;;;;14.69;64.03809;102018.2;;;;-81
2022/06/10 03:30:30;;;;;;;;;;;;;;;14.72;64.27832;102016.3;;;;-80
2022/06/10 03:35:29;;;;;;;;;;;;;;;14.75;64.29297;102014.2;;;;-80
2022/06/10 03:40:37;;;;;;;;;;;;;;;14.78;63.71289;102018.2;;;;-81
2022/06/10 03:44:45;;;;;;;6.9;1.6;;;;;;;;;;;;;-82
2022/06/10 03:45:27;;;;;;;;;;;;;;;14.81;63.38184;102023.3;;;;-82
2022/06/10 03:50:31;;;;;;;;;;;;;;;14.85;64.03809;102027.6;;;;-80
2022/06/10 03:55:26;;;;;;;;;;;;;;;14.87;64.79395;102030.2;;;;-80
2022/06/10 04:00:27;;;;;;;;;;;;;;;14.89;65.04395;102033.6;;;;-81
2022/06/10 04:05:28;;;;;;;;;;;;;;;14.9;65.52832;102032.8;;;;-80
2022/06/10 04:10:28;;;;;;;;;;;;;;;14.93;66.28418;102038.1;;;;-80
2022/06/10 04:14:47;;;;;;;6.6;1.6;;;;;;;;;;;;;-79
2022/06/10 04:15:39;;;;;;;;;;;;;;;14.95;66.97168;102036.3;;;;-82
2022/06/10 04:20:27;;;;;;;;;;;;;;;14.98;66.4043;102039.8;;;;-79
2022/06/10 04:25:27;;;;;;;;;;;;;;;14.99;66.36133;102044.3;;;;-79
2022/06/10 04:30:28;;;;;;;;;;;;;;;14.99;66.47363;102040.1;;;;-80
2022/06/10 04:35:25;;;;;;;;;;;;;;;15.01;66.59961;102043.8;;;;-81
2022/06/10 04:40:27;;;;;;;;;;;;;;;15.03;67.14063;102042.2;;;;-79
2022/06/10 04:44:44;;;;;;;7.7;2.6;;;;;;;;;;;;;-79
2022/06/10 04:45:27;;;;;;;;;;;;;;;15.04;67.89453;102042.6;;;;-80
2022/06/10 04:50:27;;;;;;;;;;;;;;;15.08;67.39453;102040.2;;;;-80
2022/06/10 04:55:49;;;;;;;;;;;;;;;15.1;67.88184;102034.2;;;;-81
2022/06/10 05:00:39;;;;;;;;;;;;;;;15.13;68.79492;102031.2;;;;-82
2022/06/10 05:05:31;;;;;;;;;;;;;;;15.17;68.86816;102029.8;;;;-81
2022/06/10 05:10:26;;;;;;;;;;;;;;;15.22;69.6377;102029.6;;;;-79
2022/06/10 05:14:51;;;;;;;5.1;1.9;;;;;;;;;;;;;-79
2022/06/10 05:15:28;;;;;;;;;;;;;;;15.29;69.89648;102027.9;;;;-80
2022/06/10 05:20:40;;;;;;;;;;;;;;;15.36;69.73926;102031.6;;;;-81
2022/06/10 05:25:29;;;;;;;;;;;;;;;15.43;69.30176;102028.5;;;;-82
2022/06/10 05:30:27;;;;;;;;;;;;;;;15.51;69.52832;102032.2;;;;-81
2022/06/10 05:35:26;;;;;;;;;;;;;;;15.6;70.39453;102034.5;;;;-80
2022/06/10 05:40:26;;;;;;;;;;;;;;;15.66;70.29395;102035;;;;-80
2022/06/10 05:44:54;;;;;;;8.3;2.2;;;;;;;;;;;;;-82
2022/06/10 05:45:40;;;;;;;;;;;;;;;15.73;69.84277;102042.3;;;;-83
2022/06/10 05:50:29;;;;;;;;;;;;;;;15.78;69.66113;102046.8;;;;-82
2022/06/10 05:55:34;;;;;;;;;;;;;;;15.85;69.18945;102049.2;;;;-83
2022/06/10 06:00:40;;;;;;;;;;;;;;;15.92;69.10938;102050.5;;;;-80
2022/06/10 06:05:26;;;;;;;;;;;;;;;15.97;69.10645;102052.5;;;;-80
2022/06/10 06:10:28;;;;;;;;;;;;;;;16.02;68.49512;102055.3;;;;-81
2022/06/10 06:15:04;;;;;;;8.3;2;;;;;;;;;;;;;-82
2022/06/10 06:15:27;;;;;;;;;;;;;;;16.08;68.66309;102056.4;;;;-80
2022/06/10 06:20:50;;;;;;;;;;;;;;;16.22;68.16504;102060.5;;;;-80
2022/06/10 06:25:30;;;;;;;;;;;;;;;16.3;68.65039;102067.2;;;;-81
2022/06/10 06:30:49;;;;;;;;;;;;;;;16.38;68.68555;102069.1;;;;-82
2022/06/10 06:40:32;;;;;;;;;;;;;;;16.49;68.39844;102069.5;;;;-80
2022/06/10 06:45:00;;;;;;;7.8;2.1;;;;;;;;;;;;;-82
2022/06/10 06:45:29;;;;;;;;;;;;;;;16.43;68.45703;102058.9;;;;-82
2022/06/10 06:50:33;;;;;;;;;;;;;;;16.58;68.62598;102072;;;;-81
2022/06/10 06:55:27;;;;;;;;;;;;;;;16.61;68.48535;102068.2;;;;-80
2022/06/10 07:00:38;;;;;;;;;;;;;;;16.59;68.82031;102062.4;;;;-81
2022/06/10 07:05:31;;;;;;;;;;;;;;;16.73;68.44629;102070.2;;;;-81
2022/06/10 07:10:38;;;;;;;;;;;;;;;16.79;68.38867;102078.3;;;;-82
2022/06/10 07:13:25;;;;;;;;;;;;;;;17.19;68.06641;102087.3;;;;-80
2022/06/10 07:15:04;;;;;;;7.5;2;;;;;;;;;;;;;-80
2022/06/10 07:18:27;;;;;;;;;;;;;;;16.86;68.66992;102072;;;;-81
2022/06/10 07:23:20;;;;;;;;;;;;;;;17.01;68.53516;102084.5;;;;-82
2022/06/10 07:32:18;;;;;;;;;;;;;;;17.48;67.43457;102079.1;;;;-83
2022/06/10 07:35:46;;;;;;;;;;;;;;;17.31;68.00586;102087;;;;-81
2022/06/10 07:44:55;;;;;;;9.5;2.3;;;;;;;;;;;;;-83
2022/06/10 07:45:46;;;;;;;;;;;;;;;17.53;67.3418;102082.2;;;;-82
2022/06/10 07:50:47;;;;;;;;;;;;;;;17.63;67.15332;102087.2;;;;-82
2022/06/10 07:55:49;;;;;;;;;;;;;;;17.68;67.05859;102085.3;;;;-84
2022/06/10 08:00:46;;;;;;;;;;;;;;;17.72;67.08691;102091.4;;;;-82
2022/06/10 08:05:46;;;;;;;;;;;;;;;17.72;67.85547;102090.4;;;;-82
2022/06/10 08:10:46;;;;;;;;;;;;;;;17.76;68.36914;102094.1;;;;-84
2022/06/10 08:14:58;;;;;;;5.8;1.8;;;;;;;;;;;;;-82
2022/06/10 08:15:46;;;;;;;;;;;;;;;17.82;68.28711;102091.9;;;;-84
2022/06/10 08:25:46;;;;;;;;;;;;;;;17.98;68.34668;102091;;;;-83
2022/06/10 08:30:46;;;;;;;;;;;;;;;18.1;68.56934;102095;;;;-83
2022/06/10 08:35:47;;;;;;;;;;;;;;;18.23;68.75684;102090.5;;;;-83
2022/06/10 08:40:55;;;;;;;;;;;;;;;18.38;68.63379;102087.7;;;;-83
2022/06/10 08:45:00;;;;;;;9.2;2.9;;;;;;;;;;;;;-83
2022/06/10 08:45:53;;;;;;;;;;;;;;;18.66;68.81348;102088.6;;;;-83
2022/06/10 08:50:57;;;;;;;;;;;;;;;19.05;67.84375;102077.9;;;;-83
2022/06/10 08:56:06;;;;;;;;;;;;;;;19.57;67.06152;102077.2;;;;-83
2022/06/10 09:00:47;;;;;;;;;;;;;;;19.92;65.42188;102073.1;;;;-83
2022/06/10 09:05:47;;;;;;;;;;;;;;;20.16;64.54785;102077.8;;;;-83
2022/06/10 09:10:49;;;;;;;;;;;;;;;20.27;64.47266;102081;;;;-83
2022/06/10 09:15:04;;;;;;;7.9;2.8;;;;;;;;;;;;;-83
2022/06/10 09:15:50;;;;;;;;;;;;;;;20.34;64.3916;102085.2;;;;-83
2022/06/10 09:20:50;;;;;;;;;;;;;;;20.41;64.08398;102092.3;;;;-82
2022/06/10 09:25:47;;;;;;;;;;;;;;;20.55;64.18359;102084.6;;;;-84
2022/06/10 09:30:51;;;;;;;;;;;;;;;20.73;63.44727;102091.4;;;;-83
2022/06/10 09:35:53;;;;;;;;;;;;;;;20.83;62.85742;102087.9;;;;-83
2022/06/10 09:41:04;;;;;;;;;;;;;;;20.88;63.08203;102081;;;;-84
2022/06/10 09:45:10;;;;;;;8.9;2.8;;;;;;;;;;;;;-83
2022/06/10 09:45:49;;;;;;;;;;;;;;;20.97;62.93555;102078.9;;;;-85
2022/06/10 09:50:51;;;;;;;;;;;;;;;21.22;62.59375;102077.1;;;;-82
2022/06/10 09:55:50;;;;;;;;;;;;;;;21.56;61.4541;102066.7;;;;-83
2022/06/10 10:00:55;;;;;;;;;;;;;;;21.96;60.80176;102076.2;;;;-84
2022/06/10 10:06:01;;;;;;;;;;;;;;;22.27;59.44824;102090.9;;;;-83
2022/06/10 10:10:50;;;;;;;;;;;;;;;22.43;58.54395;102090.9;;;;-83
2022/06/10 10:15:13;;;;;;;6.1;1.5;;;;;;;;;;;;;-82
2022/06/10 10:15:53;;;;;;;;;;;;;;;22.71;58.15625;102085.5;;;;-83
2022/06/10 10:21:00;;;;;;;;;;;;;;;23.05;57.59473;102080;;;;-83
2022/06/10 10:25:47;;;;;;;;;;;;;;;23.35;56.4502;102072.8;;;;-81
2022/06/10 10:30:49;;;;;;;;;;;;;;;23.61;55.1748;102080.8;;;;-83
2022/06/10 10:35:48;;;;;;;;;;;;;;;23.95;54.74414;102075.2;;;;-84
2022/06/10 10:40:47;;;;;;;;;;;;;;;24.21;53.40723;102080;;;;-83
2022/06/10 10:45:12;;;;;;;4.3;1;;;;;;;;;;;;;-82
2022/06/10 10:45:58;;;;;;;;;;;;;;;24.37;52.88477;102084.2;;;;-83
2022/06/10 10:50:56;;;;;;;;;;;;;;;24.49;51.66699;102091;;;;-82
2022/06/10 10:55:52;;;;;;;;;;;;;;;24.45;50.92578;102094.1;;;;-82
2022/06/10 11:00:49;;;;;;;;;;;;;;;24.38;50.38867;102092.4;;;;-82
2022/06/10 11:05:52;;;;;;;;;;;;;;;24.5;49.97559;102102.1;;;;-83
2022/06/10 11:10:54;;;;;;;;;;;;;;;24.74;49.60938;102096.8;;;;-82
2022/06/10 11:15:26;;;;;;;5.5;1.2;;;;;;;;;;;;;-81
2022/06/10 11:15:57;;;;;;;;;;;;;;;25.11;49.60352;102106.8;;;;-80
2022/06/10 11:25:59;;;;;;;;;;;;;;;25.64;48.81934;102104.9;;;;-81
2022/06/10 11:30:49;;;;;;;;;;;;;;;25.77;47.26172;102119.2;;;;-83
2022/06/10 11:35:59;;;;;;;;;;;;;;;25.76;46.77246;102095.1;;;;-81
2022/06/10 11:40:52;;;;;;;;;;;;;;;25.8;47.21777;102104.6;;;;-83
2022/06/10 11:45:21;;;;;;;6.6;1.4;;;;;;;;;;;;;-82
2022/06/10 11:45:51;;;;;;;;;;;;;;;25.78;46.48633;102095.6;;;;-82
2022/06/10 11:50:54;;;;;;;;;;;;;;;25.88;47.39941;102101.9;;;;-84
2022/06/10 11:59:42;;;;;;;;;;;;;;;25.96;46.81641;102103.5;;;;-81
2022/06/10 12:00:51;;;;;;;;;;;;;;;26.07;47.04883;102095;;;;-83
2022/06/10 12:05:50;;;;;;;;;;;;;;;26.14;46.59277;102094.9;;;;-83
2022/06/10 12:11:00;;;;;;;;;;;;;;;26.14;45.62012;102091.4;;;;-82
2022/06/10 12:15:32;;;;;;;9;1.6;;;;;;;;;;;;;-82
2022/06/10 12:15:51;;;;;;;;;;;;;;;26.02;45.46875;102076.9;;;;-81
2022/06/10 12:20:49;;;;;;;;;;;;;;;26.19;45.87988;102094.9;;;;-81
2022/06/10 12:25:54;;;;;;;;;;;;;;;26.33;46.54297;102094.1;;;;-82
2022/06/10 12:31:00;;;;;;;;;;;;;;;26.45;45.43066;102116.9;;;;-84
2022/06/10 12:36:00;;;;;;;;;;;;;;;26.41;45.21875;102110.9;;;;-82
2022/06/10 12:40:53;;;;;;;;;;;;;;;26.3;44.73242;102101.9;;;;-82
2022/06/10 12:45:35;;;;;;;5.9;1.3;;;;;;;;;;;;;-83
2022/06/10 12:45:53;;;;;;;;;;;;;;;26.31;44.74512;102107.1;;;;-83
2022/06/10 12:50:58;;;;;;;;;;;;;;;26.31;44.48926;102113.3;;;;-83
2022/06/10 12:55:56;;;;;;;;;;;;;;;26.3;44.19922;102112.8;;;;-82
2022/06/10 13:00:50;;;;;;;;;;;;;;;26.38;44.57813;102116.5;;;;-82
2022/06/10 13:05:51;;;;;;;;;;;;;;;26.35;44.01953;102118.5;;;;-82
2022/06/10 13:10:49;;;;;;;;;;;;;;;26.37;44.6709;102114.9;;;;-80
2022/06/10 13:15:39;;;;;;;6;1.2;;;;;;;;;;;;;-82
2022/06/10 13:15:49;;;;;;;;;;;;;;;26.38;44.6709;102104.5;;;;-82
2022/06/10 13:20:49;;;;;;;;;;;;;;;26.55;45.30176;102113.3;;;;-80
2022/06/10 13:25:48;;;;;;;;;;;;;;;26.8;45.57129;102122.4;;;;-82
2022/06/10 13:30:47;;;;;;;;;;;;;;;26.97;45.1709;102112.7;;;;-80
2022/06/10 13:36:00;;;;;;;;;;;;;;;27.03;44.88574;102116.8;;;;-83
2022/06/10 13:40:53;;;;;;;;;;;;;;;27.23;45.67188;102109.4;;;;-83
2022/06/10 13:45:34;;;;;;;2.1;0.8;;;;;;;;;;;;;-84
2022/06/10 13:45:49;;;;;;;;;;;;;;;27.4;45.2832;102111.1;;;;-83
2022/06/10 13:51:11;;;;;;;;;;;;;;;27.55;45.34375;102115;;;;-83
2022/06/10 13:55:46;;;;;;;;;;;;;;;27.63;44.93359;102121;;;;-83
2022/06/10 14:00:49;;;;;;;;;;;;;;;27.73;44.64063;102108.7;;;;-83
2022/06/10 14:05:47;;;;;;;;;;;;;;;27.83;44.91895;102110.6;;;;-81
2022/06/10 14:10:51;;;;;;;;;;;;;;;28.02;44.83301;102112.6;;;;-82
2022/06/10 14:15:39;;;;;;;2.5;0.6;;;;;;;;;;;;;-83
2022/06/10 14:15:52;;;;;;;;;;;;;;;28.16;44.88184;102106.6;;;;-82
2022/06/10 14:20:49;;;;;;;;;;;;;;;28.17;43.95215;102103.9;;;;-82
2022/06/10 14:25:59;;;;;;;;;;;;;;;28.22;44.20117;102103;;;;-84
2022/06/10 14:31:06;;;;;;;;;;;;;;;28.25;44.27344;102101.7;;;;-84
2022/06/10 14:35:49;;;;;;;;;;;;;;;28.3;43.95313;102096.9;;;;-83
2022/06/10 14:40:59;;;;;;;;;;;;;;;28.27;44.00781;102100.8;;;;-83
2022/06/10 14:45:43;;;;;;;2.9;0.7;;;;;;;;;;;;;-85
2022/06/10 14:46:03;;;;;;;;;;;;;;;28.29;44.18457;102096.8;;;;-82
2022/06/10 14:50:56;;;;;;;;;;;;;;;28.25;43.69141;102093.9;;;;-84
2022/06/10 14:55:51;;;;;;;;;;;;;;;28.27;44.28809;102089;;;;-84
2022/06/10 15:00:48;;;;;;;;;;;;;;;28.28;44.1377;102094.5;;;;-82
2022/06/10 15:10:54;;;;;;;;;;;;;;;28.14;44.36816;102088;;;;-84
2022/06/10 15:15:45;;;;;;;3.6;1.2;;;;;;;;;;;;;-84
2022/06/10 15:15:57;;;;;;;;;;;;;;;28.09;44.25879;102086.3;;;;-84
2022/06/10 15:20:55;;;;;;;;;;;;;;;28.17;44.30078;102078.6;;;;-80
2022/06/10 15:26:01;;;;;;;;;;;;;;;28.19;44.44336;102083.8;;;;-84
2022/06/10 15:30:53;;;;;;;;;;;;;;;28.25;44.25;102072;;;;-83
2022/06/10 15:40:49;;;;;;;;;;;;;;;28.25;44.49512;102064.2;;;;-82
2022/06/10 15:45:46;;;;;;;;;;;;;;;28.26;44.4375;102062.6;;;;-83
2022/06/10 15:45:59;;;;;;;5.5;1.5;;;;;;;;;;;;;-83
2022/06/10 15:50:48;;;;;;;;;;;;;;;28.17;44.52148;102052.5;;;;-82
2022/06/10 16:00:56;;;;;;;;;;;;;;;28.11;45.17969;102054.2;;;;-84
2022/06/10 16:10:53;;;;;;;;;;;;;;;28.02;44.90332;102054.5;;;;-85
2022/06/10 16:15:50;;;;;;;;;;;;;;;27.94;44.87207;102054.1;;;;-84
2022/06/10 16:16:09;;;;;;;4.7;1.3;;;;;;;;;;;;;-84
2022/06/10 16:20:48;;;;;;;;;;;;;;;27.8;44.95117;102060.1;;;;-84
2022/06/10 16:25:54;;;;;;;;;;;;;;;27.58;44.90625;102051.1;;;;-85
2022/06/10 16:30:47;;;;;;;;;;;;;;;27.41;45.13281;102052.2;;;;-85
2022/06/10 16:35:46;;;;;;;;;;;;;;;27.3;45.55176;102052;;;;-83
2022/06/10 16:40:47;;;;;;;;;;;;;;;27.19;45.61035;102045.6;;;;-83
2022/06/10 16:45:47;;;;;;;;;;;;;;;27.14;45.83789;102046.3;;;;-84
2022/06/10 16:45:57;;;;;;;3.2;1.1;;;;;;;;;;;;;-84
2022/06/10 16:50:57;;;;;;;;;;;;;;;27.17;45.8291;102040.7;;;;-84
2022/06/10 17:00:46;;;;;;;;;;;;;;;27.1;45.8916;102036.8;;;;-84
2022/06/10 17:05:47;;;;;;;;;;;;;;;27;45.91602;102037;;;;-82
2022/06/10 17:10:46;;;;;;;;;;;;;;;26.89;46.19531;102032.2;;;;-83
2022/06/10 17:15:47;;;;;;;;;;;;;;;26.77;46.28711;102029.2;;;;-83
2022/06/10 17:16:05;;;;;;;4.7;1.3;;;;;;;;;;;;;-82
2022/06/10 17:20:49;;;;;;;;;;;;;;;26.64;46.52832;102033.9;;;;-85
2022/06/10 17:25:51;;;;;;;;;;;;;;;26.58;46.67285;102028.8;;;;-83
2022/06/10 17:30:48;;;;;;;;;;;;;;;26.55;46.6123;102039.9;;;;-83
2022/06/10 17:35:48;;;;;;;;;;;;;;;26.42;46.7373;102032.9;;;;-85
2022/06/10 17:40:47;;;;;;;;;;;;;;;26.25;46.94043;102030.5;;;;-83
2022/06/10 17:45:48;;;;;;;;;;;;;;;26.09;47.17773;102030.1;;;;-84
2022/06/10 17:46:07;;;;;;;3.5;1.3;;;;;;;;;;;;;-83
2022/06/10 17:50:46;;;;;;;;;;;;;;;25.93;47.3457;102027.4;;;;-86
2022/06/10 17:55:46;;;;;;;;;;;;;;;25.82;47.60059;102029.7;;;;-85
2022/06/10 18:00:48;;;;;;;;;;;;;;;25.73;47.76465;102033.7;;;;-83
2022/06/10 18:05:50;;;;;;;;;;;;;;;25.61;47.75195;102037.8;;;;-83
2022/06/10 18:10:49;;;;;;;;;;;;;;;25.47;47.8877;102034.4;;;;-83
2022/06/10 18:15:46;;;;;;;;;;;;;;;25.33;48.02344;102028.3;;;;-83
2022/06/10 18:16:11;;;;;;;3.8;1.3;;;;;;;;;;;;;-83
2022/06/10 18:20:47;;;;;;;;;;;;;;;25.16;48.1084;102030.5;;;;-82
2022/06/10 18:25:46;;;;;;;;;;;;;;;24.98;48.1123;102039.9;;;;-82
2022/06/10 18:30:47;;;;;;;;;;;;;;;24.81;48.20898;102038.5;;;;-83
2022/06/10 18:35:48;;;;;;;;;;;;;;;24.63;48.14453;102041.7;;;;-82
2022/06/10 18:40:47;;;;;;;;;;;;;;;24.41;48.31738;102040.1;;;;-82
2022/06/10 18:45:46;;;;;;;;;;;;;;;24.23;48.51563;102032;;;;-82
2022/06/10 18:46:21;;;;;;;3.2;1;;;;;;;;;;;;;-80
2022/06/10 18:50:49;;;;;;;;;;;;;;;24.12;48.60742;102031.5;;;;-83
2022/06/10 18:55:46;;;;;;;;;;;;;;;23.97;48.48926;102033.9;;;;-82
2022/06/10 19:00:48;;;;;;;;;;;;;;;23.74;48.77441;102028.6;;;;-82
2022/06/10 19:05:46;;;;;;;;;;;;;;;23.49;48.91895;102030.5;;;;-81
2022/06/10 19:10:47;;;;;;;;;;;;;;;23.2;49.2793;102030.2;;;;-82
2022/06/10 19:15:49;;;;;;;;;;;;;;;22.92;49.25977;102030.8;;;;-81
2022/06/10 19:16:19;;;;;;;2;0.9;;;;;;;;;;;;;-82
2022/06/10 19:20:50;;;;;;;;;;;;;;;22.64;49.5957;102036.4;;;;-81
2022/06/10 19:25:55;;;;;;;;;;;;;;;22.37;49.39355;102044.4;;;;-84
2022/06/10 19:31:00;;;;;;;;;;;;;;;22.14;49.56348;102039.2;;;;-84
2022/06/10 19:35:50;;;;;;;;;;;;;;;21.88;49.72852;102036.1;;;;-83
2022/06/10 19:40:48;;;;;;;;;;;;;;;21.63;49.88477;102039.4;;;;-81
2022/06/10 19:45:49;;;;;;;;;;;;;;;21.37;50.06152;102038.1;;;;-83
2022/06/10 19:46:24;;;;;;;2.8;0.9;;;;;;;;;;;;;-84
2022/06/10 19:50:46;;;;;;;;;;;;;;;21.14;50.35645;102042.8;;;;-83
2022/06/10 19:55:50;;;;;;;;;;;;;;;20.9;50.61523;102044.2;;;;-81
2022/06/10 20:00:46;;;;;;;;;;;;;;;20.66;50.73633;102046.8;;;;-83
2022/06/10 20:05:46;;;;;;;;;;;;;;;20.43;51.14258;102045.3;;;;-83
2022/06/10 20:10:48;;;;;;;;;;;;;;;20.2;51.41406;102056.4;;;;-83
2022/06/10 20:15:54;;;;;;;;;;;;;;;19.98;51.70801;102056.5;;;;-82
2022/06/10 20:16:24;;;;;;;3.7;1;;;;;;;;;;;;;-83
2022/06/10 20:20:47;;;;;;;;;;;;;;;19.79;52.24414;102062.8;;;;-80
2022/06/10 20:25:48;;;;;;;;;;;;;;;19.59;52.6084;102056.7;;;;-83
2022/06/10 20:30:50;;;;;;;;;;;;;;;19.38;52.95898;102050.9;;;;-82
2022/06/10 20:35:50;;;;;;;;;;;;;;;19.21;53.38184;102050.1;;;;-83
2022/06/10 20:40:48;;;;;;;;;;;;;;;19.01;54.0293;102053.8;;;;-82
2022/06/10 20:45:49;;;;;;;;;;;;;;;18.85;54.55566;102053.9;;;;-83
2022/06/10 20:46:36;;;;;;;5.2;1.1;;;;;;;;;;;;;-82
2022/06/10 20:50:49;;;;;;;;;;;;;;;18.71;54.60547;102050;;;;-82
2022/06/10 20:55:51;;;;;;;;;;;;;;;18.56;55.01855;102055.1;;;;-81
2022/06/10 21:00:53;;;;;;;;;;;;;;;18.39;55.25879;102051.8;;;;-80
2022/06/10 21:10:53;;;;;;;;;;;;;;;18.12;56.04297;102056.2;;;;-83
2022/06/10 21:15:49;;;;;;;;;;;;;;;18.02;56.35742;102058.3;;;;-82
2022/06/10 21:16:30;;;;;;;5.2;1.2;;;;;;;;;;;;;-84
2022/06/10 21:20:47;;;;;;;;;;;;;;;17.92;56.69727;102060.5;;;;-82
2022/06/10 21:25:49;;;;;;;;;;;;;;;17.81;56.9541;102064.7;;;;-81
2022/06/10 21:30:59;;;;;;;;;;;;;;;17.7;57.17969;102069.6;;;;-81
2022/06/10 21:35:46;;;;;;;;;;;;;;;17.61;57.75488;102074.7;;;;-81
2022/06/10 21:40:49;;;;;;;;;;;;;;;17.52;58.35449;102068.9;;;;-82
2022/06/10 21:45:47;;;;;;;;;;;;;;;17.44;58.80859;102068.8;;;;-81
2022/06/10 21:46:37;;;;;;;3.6;1;;;;;;;;;;;;;-83
2022/06/10 21:50:49;;;;;;;;;;;;;;;17.38;59.33203;102060.3;;;;-82
2022/06/10 21:55:48;;;;;;;;;;;;;;;17.31;59.52539;102056.2;;;;-82
2022/06/10 22:00:52;;;;;;;;;;;;;;;17.24;59.7207;102059.4;;;;-83
2022/06/10 22:05:46;;;;;;;;;;;;;;;17.17;59.66504;102062.3;;;;-80
2022/06/10 22:10:50;;;;;;;;;;;;;;;17.09;59.7334;102062.7;;;;-82
2022/06/10 22:15:46;;;;;;;;;;;;;;;17.01;59.6543;102061.2;;;;-81
2022/06/10 22:16:35;;;;;;;7;1.2;;;;;;;;;;;;;-81
2022/06/10 22:20:59;;;;;;;;;;;;;;;16.94;59.69141;102061.9;;;;-83
2022/06/10 22:25:50;;;;;;;;;;;;;;;16.87;59.88379;102060.1;;;;-82
2022/06/10 22:30:47;;;;;;;;;;;;;;;16.81;60.0791;102061.6;;;;-82
2022/06/10 22:35:48;;;;;;;;;;;;;;;16.74;60.29688;102057.8;;;;-82
2022/06/10 22:40:49;;;;;;;;;;;;;;;16.69;60.52734;102060.1;;;;-81
2022/06/10 22:46:12;;;;;;;;;;;;;;;16.64;60.41797;102064.3;;;;-82
2022/06/10 22:46:36;;;;;;;5.6;1.2;;;;;;;;;;;;;-82
2022/06/10 22:50:55;;;;;;;;;;;;;;;16.6;60.60352;102067.1;;;;-82
2022/06/10 22:55:48;;;;;;;;;;;;;;;16.54;60.86621;102068.4;;;;-82
2022/06/10 23:00:49;;;;;;;;;;;;;;;16.5;61.24414;102061.9;;;;-82
2022/06/10 23:10:46;;;;;;;;;;;;;;;16.38;61.70313;102063.5;;;;-81
2022/06/10 23:15:47;;;;;;;;;;;;;;;16.33;61.80762;102062.4;;;;-82
2022/06/10 23:16:39;;;;;;;7.2;1.3;;;;;;;;;;;;;-82
2022/06/10 23:20:47;;;;;;;;;;;;;;;16.29;62.21875;102059.3;;;;-82
2022/06/10 23:25:47;;;;;;;;;;;;;;;16.23;62.34668;102061.7;;;;-81
2022/06/10 23:30:49;;;;;;;;;;;;;;;16.17;62.5293;102059.8;;;;-83
2022/06/10 23:35:47;;;;;;;;;;;;;;;16.14;62.50293;102060.9;;;;-79
2022/06/10 23:40:48;;;;;;;;;;;;;;;16.07;62.50488;102063;;;;-82
2022/06/10 23:50:49;;;;;;;;;;;;;;;15.94;62.7334;102064.1;;;;-81
